sensor_id;sensor_type;location;lat;lon;timestamp;pressure;altitude;pressure_sealevel;temperature;humidity
32324;BME280;25666;44.350;9.222;2022-10-16T00:01:27;102088.44;;;18.46;100.00
32324;BME280;25666;44.350;9.222;2022-10-16T00:03:55;102084.81;;;18.46;100.00
32324;BME280;25666;44.350;9.222;2022-10-16T00:06:21;102090.91;;;18.48;100.00
32324;BME280;25666;44.350;9.222;2022-10-16T00:08:48;102090.53;;;18.49;100.00
32324;BME280;25666;44.350;9.222;2022-10-16T00:11:20;102082.91;;;18.50;100.00
32324;BME280;25666;44.350;9.222;2022-10-16T00:13:47;102088.56;;;18.50;100.00
32324;BME280;25666;44.350;9.222;2022-10-16T00:16:14;102088.44;;;18.46;100.00
32324;BME280;25666;44.350;9.222;2022-10-16T00:18:40;102090.19;;;18.51;100.00
32324;BME280;25666;44.350;9.222;2022-10-16T00:21:16;102082.16;;;18.53;100.00
32324;BME280;25666;44.350;9.222;2022-10-16T00:23:42;102085.41;;;18.55;100.00
32324;BME280;25666;44.350;9.222;2022-10-16T00:26:10;102082.81;;;18.46;100.00
32324;BME280;25666;44.350;9.222;2022-10-16T00:28:38;102085.72;;;18.50;100.00
32324;BME280;25666;44.350;9.222;2022-10-16T00:31:12;102084.06;;;18.49;100.00
32324;BME280;25666;44.350;9.222;2022-10-16T00:33:39;102087.38;;;18.51;100.00
32324;BME280;25666;44.350;9.222;2022-10-16T00:36:06;102088.44;;;18.46;100.00
32324;BME280;25666;44.350;9.222;2022-10-16T00:38:32;102081.97;;;18.46;100.00
32324;BME280;25666;44.350;9.222;2022-10-16T00:40:58;102088.84;;;18.45;100.00
32324;BME280;25666;44.350;9.222;2022-10-16T00:43:43;102086.38;;;18.43;100.00
32324;BME280;25666;44.350;9.222;2022-10-16T00:46:20;102087.53;;;18.42;100.00
32324;BME280;25666;44.350;9.222;2022-10-16T00:49:04;102093.66;;;18.44;100.00
32324;BME280;25666;44.350;9.222;2022-10-16T00:51:33;102093.66;;;18.44;100.00
32324;BME280;25666;44.350;9.222;2022-10-16T00:54:01;102094.47;;;18.45;100.00
32324;BME280;25666;44.350;9.222;2022-10-16T00:56:27;102101.28;;;18.44;100.00
32324;BME280;25666;44.350;9.222;2022-10-16T00:58:53;102094.81;;;18.43;100.00
32324;BME280;25666;44.350;9.222;2022-10-16T01:01:18;102104.84;;;18.41;100.00
32324;BME280;25666;44.350;9.222;2022-10-16T01:03:44;102102.03;;;18.41;100.00
32324;BME280;25666;44.350;9.222;2022-10-16T01:12:01;102100.03;;;18.41;100.00
32324;BME280;25666;44.350;9.222;2022-10-16T01:15:11;102108.56;;;18.45;100.00
32324;BME280;25666;44.350;9.222;2022-10-16T01:22:57;102108.09;;;18.43;100.00
32324;BME280;25666;44.350;9.222;2022-10-16T01:25:54;102106.94;;;18.44;100.00
32324;BME280;25666;44.350;9.222;2022-10-16T01:28:32;102111.75;;;18.43;100.00
32324;BME280;25666;44.350;9.222;2022-10-16T01:31:01;102115.75;;;18.42;100.00
32324;BME280;25666;44.350;9.222;2022-10-16T01:33:32;102117.78;;;18.42;100.00
32324;BME280;25666;44.350;9.222;2022-10-16T01:36:21;102112.84;;;18.39;100.00
32324;BME280;25666;44.350;9.222;2022-10-16T01:38:49;102112.03;;;18.38;100.00
32324;BME280;25666;44.350;9.222;2022-10-16T01:41:32;102111.22;;;18.38;100.00
32324;BME280;25666;44.350;9.222;2022-10-16T01:44:06;102121.69;;;18.37;100.00
32324;BME280;25666;44.350;9.222;2022-10-16T01:46:36;102126.59;;;18.40;100.00
32324;BME280;25666;44.350;9.222;2022-10-16T01:49:03;102123.41;;;18.42;100.00
32324;BME280;25666;44.350;9.222;2022-10-16T01:51:29;102126.59;;;18.40;100.00
32324;BME280;25666;44.350;9.222;2022-10-16T01:53:57;102118.94;;;18.41;100.00
32324;BME280;25666;44.350;9.222;2022-10-16T01:56:24;102116.94;;;18.41;100.00
32324;BME280;25666;44.350;9.222;2022-10-16T01:59:07;102117.31;;;18.40;100.00
32324;BME280;25666;44.350;9.222;2022-10-16T02:01:37;102118.88;;;18.37;100.00
32324;BME280;25666;44.350;9.222;2022-10-16T02:04:15;102123.69;;;18.37;100.00
32324;BME280;25666;44.350;9.222;2022-10-16T02:06:42;102130.22;;;18.41;100.00
32324;BME280;25666;44.350;9.222;2022-10-16T02:09:08;102126.22;;;18.42;100.00
32324;BME280;25666;44.350;9.222;2022-10-16T02:11:34;102130.66;;;18.43;100.00
32324;BME280;25666;44.350;9.222;2022-10-16T02:14:06;102125.84;;;18.43;100.00
32324;BME280;25666;44.350;9.222;2022-10-16T02:16:44;102128.22;;;18.41;100.00
32324;BME280;25666;44.350;9.222;2022-10-16T02:19:15;102125.31;;;18.38;100.00
32324;BME280;25666;44.350;9.222;2022-10-16T02:21:51;102120.34;;;18.31;100.00
32324;BME280;25666;44.350;9.222;2022-10-16T02:29:39;102109.81;;;18.28;100.00
32324;BME280;25666;44.350;9.222;2022-10-16T02:32:07;102111.88;;;18.31;100.00
32324;BME280;25666;44.350;9.222;2022-10-16T02:34:36;102117.88;;;18.30;100.00
32324;BME280;25666;44.350;9.222;2022-10-16T02:37:04;102123.91;;;18.28;100.00
32324;BME280;25666;44.350;9.222;2022-10-16T02:39:30;102114.72;;;18.31;100.00
32324;BME280;25666;44.350;9.222;2022-10-16T02:41:56;102118.63;;;18.27;100.00
32324;BME280;25666;44.350;9.222;2022-10-16T02:44:22;102121.91;;;18.29;100.00
32324;BME280;25666;44.350;9.222;2022-10-16T02:46:47;102123.09;;;18.28;100.00
32324;BME280;25666;44.350;9.222;2022-10-16T02:49:13;102119.81;;;18.26;100.00
32324;BME280;25666;44.350;9.222;2022-10-16T02:51:38;102122.56;;;18.22;100.00
32324;BME280;25666;44.350;9.222;2022-10-16T02:54:04;102133.00;;;18.22;100.00
32324;BME280;25666;44.350;9.222;2022-10-16T02:56:29;102125.38;;;18.22;100.00
32324;BME280;25666;44.350;9.222;2022-10-16T02:58:56;102130.19;;;18.22;100.00
32324;BME280;25666;44.350;9.222;2022-10-16T03:01:22;102128.56;;;18.20;100.00
32324;BME280;25666;44.350;9.222;2022-10-16T03:03:47;102135.44;;;18.23;100.00
32324;BME280;25666;44.350;9.222;2022-10-16T03:06:13;102136.75;;;18.26;100.00
32324;BME280;25666;44.350;9.222;2022-10-16T03:08:38;102135.19;;;18.28;100.00
32324;BME280;25666;44.350;9.222;2022-10-16T03:11:04;102137.63;;;18.30;100.00
32324;BME280;25666;44.350;9.222;2022-10-16T03:13:30;102141.63;;;18.29;100.00
32324;BME280;25666;44.350;9.222;2022-10-16T03:15:55;102143.56;;;18.25;100.00
32324;BME280;25666;44.350;9.222;2022-10-16T03:18:21;102145.56;;;18.24;100.00
32324;BME280;25666;44.350;9.222;2022-10-16T03:20:46;102143.91;;;18.23;100.00
32324;BME280;25666;44.350;9.222;2022-10-16T03:23:12;102141.81;;;18.20;100.00
32324;BME280;25666;44.350;9.222;2022-10-16T03:25:37;102140.22;;;18.19;100.00
32324;BME280;25666;44.350;9.222;2022-10-16T03:28:03;102151.56;;;18.23;100.00
32324;BME280;25666;44.350;9.222;2022-10-16T03:30:28;102154.00;;;18.24;100.00
32324;BME280;25666;44.350;9.222;2022-10-16T03:32:54;102154.81;;;18.25;100.00
32324;BME280;25666;44.350;9.222;2022-10-16T03:35:21;102159.66;;;18.24;100.00
32324;BME280;25666;44.350;9.222;2022-10-16T03:37:46;102155.66;;;18.25;100.00
32324;BME280;25666;44.350;9.222;2022-10-16T03:40:12;102160.47;;;18.25;100.00
32324;BME280;25666;44.350;9.222;2022-10-16T03:42:37;102154.31;;;18.19;100.00
32324;BME280;25666;44.350;9.222;2022-10-16T03:45:04;102151.00;;;18.17;100.00
32324;BME280;25666;44.350;9.222;2022-10-16T03:47:29;102146.66;;;18.19;100.00
32324;BME280;25666;44.350;9.222;2022-10-16T03:49:55;102151.50;;;18.19;100.00
32324;BME280;25666;44.350;9.222;2022-10-16T03:52:21;102150.75;;;18.22;100.00
32324;BME280;25666;44.350;9.222;2022-10-16T03:54:47;102149.94;;;18.22;100.00
32324;BME280;25666;44.350;9.222;2022-10-16T03:57:12;102150.28;;;18.20;100.00
32324;BME280;25666;44.350;9.222;2022-10-16T03:59:38;102154.31;;;18.19;100.00
32324;BME280;25666;44.350;9.222;2022-10-16T04:02:03;102149.75;;;18.14;100.00
32324;BME280;25666;44.350;9.222;2022-10-16T04:04:29;102148.50;;;18.12;100.00
32324;BME280;25666;44.350;9.222;2022-10-16T04:06:54;102145.69;;;18.12;100.00
32324;BME280;25666;44.350;9.222;2022-10-16T04:09:19;102140.78;;;18.09;100.00
32324;BME280;25666;44.350;9.222;2022-10-16T04:11:45;102153.41;;;18.15;100.00
32324;BME280;25666;44.350;9.222;2022-10-16T04:14:10;102149.31;;;18.12;100.00
32324;BME280;25666;44.350;9.222;2022-10-16T04:16:36;102150.88;;;18.10;100.00
32324;BME280;25666;44.350;9.222;2022-10-16T04:19:02;102155.69;;;18.09;100.00
32324;BME280;25666;44.350;9.222;2022-10-16T04:21:27;102157.34;;;18.10;100.00
32324;BME280;25666;44.350;9.222;2022-10-16T04:23:53;102162.16;;;18.10;100.00
32324;BME280;25666;44.350;9.222;2022-10-16T04:26:18;102167.88;;;18.13;100.00
32324;BME280;25666;44.350;9.222;2022-10-16T04:28:44;102171.88;;;18.12;100.00
32324;BME280;25666;44.350;9.222;2022-10-16T04:31:09;102168.59;;;18.10;100.00
32324;BME280;25666;44.350;9.222;2022-10-16T04:33:35;102177.75;;;18.07;100.00
32324;BME280;25666;44.350;9.222;2022-10-16T04:36:02;102180.97;;;18.06;100.00
32324;BME280;25666;44.350;9.222;2022-10-16T04:38:27;102182.44;;;18.00;100.00
32324;BME280;25666;44.350;9.222;2022-10-16T04:40:53;102180.69;;;17.95;100.00
32324;BME280;25666;44.350;9.222;2022-10-16T04:43:19;102193.63;;;17.96;100.00
32324;BME280;25666;44.350;9.222;2022-10-16T04:45:44;102189.72;;;18.01;100.00
32324;BME280;25666;44.350;9.222;2022-10-16T04:48:10;102196.53;;;18.00;100.00
32324;BME280;25666;44.350;9.222;2022-10-16T04:50:35;102192.16;;;18.02;100.00
32324;BME280;25666;44.350;9.222;2022-10-16T04:53:05;102190.16;;;18.03;100.00
32324;BME280;25666;44.350;9.222;2022-10-16T04:55:30;102193.69;;;18.00;100.00
32324;BME280;25666;44.350;9.222;2022-10-16T04:57:56;102197.34;;;18.00;100.00
32324;BME280;25666;44.350;9.222;2022-10-16T05:00:21;102196.97;;;18.02;100.00
32324;BME280;25666;44.350;9.222;2022-10-16T05:02:49;102196.53;;;18.00;100.00
32324;BME280;25666;44.350;9.222;2022-10-16T05:05:14;102195.78;;;18.03;100.00
32324;BME280;25666;44.350;9.222;2022-10-16T05:07:40;102196.53;;;18.00;100.00
32324;BME280;25666;44.350;9.222;2022-10-16T05:10:05;102199.69;;;17.98;100.00
32324;BME280;25666;44.350;9.222;2022-10-16T05:12:31;102200.41;;;17.95;100.00
32324;BME280;25666;44.350;9.222;2022-10-16T05:14:57;102199.53;;;17.91;100.00
32324;BME280;25666;44.350;9.222;2022-10-16T05:17:24;102196.00;;;17.94;100.00
32324;BME280;25666;44.350;9.222;2022-10-16T05:19:50;102202.69;;;17.90;100.00
32324;BME280;25666;44.350;9.222;2022-10-16T05:22:16;102191.44;;;17.90;100.00
32324;BME280;25666;44.350;9.222;2022-10-16T05:24:41;102200.81;;;17.94;100.00
32324;BME280;25666;44.350;9.222;2022-10-16T05:27:07;102198.44;;;17.96;100.00
32324;BME280;25666;44.350;9.222;2022-10-16T05:29:32;102194.78;;;17.95;100.00
32324;BME280;25666;44.350;9.222;2022-10-16T05:31:58;102197.16;;;17.93;100.00
32324;BME280;25666;44.350;9.222;2022-10-16T05:34:23;102201.16;;;17.92;100.00
32324;BME280;25666;44.350;9.222;2022-10-16T05:36:49;102201.25;;;17.96;100.00
32324;BME280;25666;44.350;9.222;2022-10-16T05:39:16;102207.25;;;17.94;100.00
32324;BME280;25666;44.350;9.222;2022-10-16T05:41:42;102212.06;;;17.94;100.00
32324;BME280;25666;44.350;9.222;2022-10-16T05:44:08;102207.69;;;17.96;100.00
32324;BME280;25666;44.350;9.222;2022-10-16T05:46:33;102211.34;;;17.97;100.00
32324;BME280;25666;44.350;9.222;2022-10-16T05:48:59;102220.22;;;17.99;100.00
32324;BME280;25666;44.350;9.222;2022-10-16T05:51:24;102213.03;;;18.01;100.00
32324;BME280;25666;44.350;9.222;2022-10-16T05:53:50;102211.88;;;18.02;100.00
32324;BME280;25666;44.350;9.222;2022-10-16T05:56:17;102202.59;;;18.02;100.00
32324;BME280;25666;44.350;9.222;2022-10-16T05:58:42;102194.06;;;17.98;100.00
32324;BME280;25666;44.350;9.222;2022-10-16T06:01:15;102201.78;;;18.01;100.00
32324;BME280;25666;44.350;9.222;2022-10-16T06:03:41;102203.72;;;17.97;100.00
32324;BME280;25666;44.350;9.222;2022-10-16T06:06:20;102213.63;;;17.91;100.00
32324;BME280;25666;44.350;9.222;2022-10-16T06:08:47;102216.34;;;17.88;100.00
32324;BME280;25666;44.350;9.222;2022-10-16T06:11:25;102212.81;;;17.91;100.00
32324;BME280;25666;44.350;9.222;2022-10-16T06:13:51;102215.88;;;17.86;100.00
32324;BME280;25666;44.350;9.222;2022-10-16T06:16:18;102219.50;;;17.86;100.00
32324;BME280;25666;44.350;9.222;2022-10-16T06:18:43;102218.63;;;17.82;100.00
32324;BME280;25666;44.350;9.222;2022-10-16T06:21:19;102228.34;;;17.85;100.00
32324;BME280;25666;44.350;9.222;2022-10-16T06:23:45;102232.63;;;17.79;100.00
32324;BME280;25666;44.350;9.222;2022-10-16T06:26:13;102233.97;;;17.85;100.00
32324;BME280;25666;44.350;9.222;2022-10-16T06:28:39;102235.78;;;17.77;100.00
32324;BME280;25666;44.350;9.222;2022-10-16T06:31:06;102238.97;;;17.76;100.00
32324;BME280;25666;44.350;9.222;2022-10-16T06:33:32;102243.97;;;17.82;100.00
32324;BME280;25666;44.350;9.222;2022-10-16T06:36:06;102251.50;;;17.94;100.00
32324;BME280;25666;44.350;9.222;2022-10-16T06:38:32;102254.94;;;18.18;100.00
32324;BME280;25666;44.350;9.222;2022-10-16T06:40:58;102257.94;;;18.26;100.00
32324;BME280;25666;44.350;9.222;2022-10-16T06:43:24;102260.47;;;18.31;100.00
32324;BME280;25666;44.350;9.222;2022-10-16T06:45:51;102261.09;;;18.40;100.00
32324;BME280;25666;44.350;9.222;2022-10-16T06:48:17;102267.91;;;18.54;100.00
32324;BME280;25666;44.350;9.222;2022-10-16T06:50:43;102251.31;;;18.68;100.00
32324;BME280;25666;44.350;9.222;2022-10-16T06:53:08;102258.63;;;18.89;100.00
32324;BME280;25666;44.350;9.222;2022-10-16T06:55:34;102259.13;;;18.94;100.00
32324;BME280;25666;44.350;9.222;2022-10-16T06:57:59;102261.88;;;19.10;100.00
32324;BME280;25666;44.350;9.222;2022-10-16T07:00:25;102255.91;;;19.15;100.00
32324;BME280;25666;44.350;9.222;2022-10-16T07:02:50;102261.31;;;19.23;100.00
32324;BME280;25666;44.350;9.222;2022-10-16T07:05:16;102257.09;;;19.33;100.00
32324;BME280;25666;44.350;9.222;2022-10-16T07:07:41;102257.34;;;19.44;100.00
32324;BME280;25666;44.350;9.222;2022-10-16T07:10:08;102264.63;;;19.45;100.00
32324;BME280;25666;44.350;9.222;2022-10-16T07:12:33;102263.31;;;19.61;100.00
32324;BME280;25666;44.350;9.222;2022-10-16T07:14:59;102263.19;;;19.77;100.00
32324;BME280;25666;44.350;9.222;2022-10-16T07:17:24;102270.97;;;19.84;100.00
32324;BME280;25666;44.350;9.222;2022-10-16T07:19:50;102271.94;;;19.91;100.00
32324;BME280;25666;44.350;9.222;2022-10-16T07:22:18;102269.53;;;19.93;100.00
32324;BME280;25666;44.350;9.222;2022-10-16T07:24:43;102267.97;;;19.96;100.00
32324;BME280;25666;44.350;9.222;2022-10-16T07:27:10;102282.28;;;19.84;100.00
32324;BME280;25666;44.350;9.222;2022-10-16T07:29:35;102281.94;;;19.85;100.00
32324;BME280;25666;44.350;9.222;2022-10-16T07:32:01;102281.59;;;19.90;100.00
32324;BME280;25666;44.350;9.222;2022-10-16T07:34:27;102290.97;;;19.94;100.00
32324;BME280;25666;44.350;9.222;2022-10-16T07:36:53;102288.22;;;19.98;100.00
32324;BME280;25666;44.350;9.222;2022-10-16T07:39:18;102293.38;;;19.92;100.00
32324;BME280;25666;44.350;9.222;2022-10-16T07:41:44;102296.22;;;19.96;100.00
32324;BME280;25666;44.350;9.222;2022-10-16T07:44:09;102298.25;;;19.95;100.00
32324;BME280;25666;44.350;9.222;2022-10-16T07:46:35;102294.91;;;19.90;100.00
32324;BME280;25666;44.350;9.222;2022-10-16T07:49:02;102296.63;;;19.94;100.00
32324;BME280;25666;44.350;9.222;2022-10-16T07:51:28;102301.13;;;19.99;100.00
32324;BME280;25666;44.350;9.222;2022-10-16T07:53:54;102298.44;;;20.06;100.00
32324;BME280;25666;44.350;9.222;2022-10-16T07:56:20;102294.97;;;20.16;100.00
32324;BME280;25666;44.350;9.222;2022-10-16T07:58:46;102302.00;;;20.25;100.00
32324;BME280;25666;44.350;9.222;2022-10-16T08:01:15;102298.56;;;20.36;100.00
32324;BME280;25666;44.350;9.222;2022-10-16T08:03:43;102300.69;;;20.42;100.00
32324;BME280;25666;44.350;9.222;2022-10-16T08:06:08;102305.31;;;20.54;100.00
32324;BME280;25666;44.350;9.222;2022-10-16T08:08:34;102306.28;;;20.65;100.00
32324;BME280;25666;44.350;9.222;2022-10-16T08:11:00;102304.22;;;20.62;100.00
32324;BME280;25666;44.350;9.222;2022-10-16T08:13:28;102303.91;;;20.67;100.00
32324;BME280;25666;44.350;9.222;2022-10-16T08:15:54;102298.72;;;20.72;100.00
32324;BME280;25666;44.350;9.222;2022-10-16T08:18:19;102301.72;;;20.83;100.00
32324;BME280;25666;44.350;9.222;2022-10-16T08:20:45;102304.16;;;20.84;100.00
32324;BME280;25666;44.350;9.222;2022-10-16T08:23:11;102306.50;;;20.79;100.00
32324;BME280;25666;44.350;9.222;2022-10-16T08:25:38;102310.94;;;20.80;100.00
32324;BME280;25666;44.350;9.222;2022-10-16T08:28:04;102311.81;;;20.84;100.00
32324;BME280;25666;44.350;9.222;2022-10-16T08:30:31;102308.56;;;20.82;100.00
32324;BME280;25666;44.350;9.222;2022-10-16T08:32:57;102313.81;;;20.83;100.00
32324;BME280;25666;44.350;9.222;2022-10-16T08:35:23;102305.06;;;20.92;100.00
32324;BME280;25666;44.350;9.222;2022-10-16T08:37:48;102310.88;;;21.03;100.00
32324;BME280;25666;44.350;9.222;2022-10-16T08:40:18;102305.34;;;21.10;100.00
32324;BME280;25666;44.350;9.222;2022-10-16T08:48:15;102310.31;;;21.20;100.00
32324;BME280;25666;44.350;9.222;2022-10-16T08:50:43;102313.22;;;21.23;100.00
32324;BME280;25666;44.350;9.222;2022-10-16T08:53:22;102316.50;;;21.29;100.00
32324;BME280;25666;44.350;9.222;2022-10-16T08:55:51;102312.47;;;21.30;100.00
32324;BME280;25666;44.350;9.222;2022-10-16T08:58:22;102312.03;;;21.28;100.00
32324;BME280;25666;44.350;9.222;2022-10-16T09:00:51;102318.41;;;21.21;100.00
32324;BME280;25666;44.350;9.222;2022-10-16T09:03:28;102317.66;;;21.24;100.00
32324;BME280;25666;44.350;9.222;2022-10-16T09:12:02;102330.47;;;21.45;100.00
32324;BME280;25666;44.350;9.222;2022-10-16T09:14:46;102325.22;;;21.47;100.00
32324;BME280;25666;44.350;9.222;2022-10-16T09:19:51;102338.22;;;21.51;100.00
32324;BME280;25666;44.350;9.222;2022-10-16T09:22:21;102334.94;;;21.49;100.00
32324;BME280;25666;44.350;9.222;2022-10-16T09:24:49;102342.31;;;21.54;100.00
32324;BME280;25666;44.350;9.222;2022-10-16T09:27:15;102339.47;;;21.54;100.00
32324;BME280;25666;44.350;9.222;2022-10-16T09:29:41;102333.03;;;21.57;100.00
32324;BME280;25666;44.350;9.222;2022-10-16T09:32:19;102331.06;;;21.61;100.00
32324;BME280;25666;44.350;9.222;2022-10-16T09:34:54;102331.44;;;21.59;100.00
32324;BME280;25666;44.350;9.222;2022-10-16T09:37:22;102331.47;;;21.63;100.00
32324;BME280;25666;44.350;9.222;2022-10-16T09:39:53;102327.44;;;21.64;100.00
32324;BME280;25666;44.350;9.222;2022-10-16T09:42:21;102329.50;;;21.67;100.00
32324;BME280;25666;44.350;9.222;2022-10-16T09:44:52;102336.41;;;21.69;100.00
32324;BME280;25666;44.350;9.222;2022-10-16T09:47:24;102338.88;;;21.74;100.00
32324;BME280;25666;44.350;9.222;2022-10-16T09:49:58;102326.75;;;21.74;100.00
32324;BME280;25666;44.350;9.222;2022-10-16T09:52:27;102329.59;;;21.77;100.00
32324;BME280;25666;44.350;9.222;2022-10-16T09:54:57;102332.06;;;21.79;100.00
32324;BME280;25666;44.350;9.222;2022-10-16T09:57:24;102335.28;;;21.77;100.00
32324;BME280;25666;44.350;9.222;2022-10-16T09:59:52;102334.00;;;21.71;100.00
32324;BME280;25666;44.350;9.222;2022-10-16T10:02:37;102336.09;;;21.78;100.00
32324;BME280;25666;44.350;9.222;2022-10-16T10:05:05;102338.19;;;21.84;100.00
32324;BME280;25666;44.350;9.222;2022-10-16T10:07:43;102337.38;;;21.84;100.00
32324;BME280;25666;44.350;9.222;2022-10-16T10:10:32;102345.50;;;21.85;100.00
32324;BME280;25666;44.350;9.222;2022-10-16T10:12:58;102342.22;;;21.83;100.00
32324;BME280;25666;44.350;9.222;2022-10-16T10:15:25;102340.94;;;21.77;100.00
32324;BME280;25666;44.350;9.222;2022-10-16T10:17:54;102331.94;;;21.68;100.00
32324;BME280;25666;44.350;9.222;2022-10-16T10:20:35;102339.97;;;21.63;100.00
32324;BME280;25666;44.350;9.222;2022-10-16T10:23:23;102340.78;;;21.63;100.00
32324;BME280;25666;44.350;9.222;2022-10-16T10:25:49;102339.19;;;21.66;100.00
32324;BME280;25666;44.350;9.222;2022-10-16T10:28:44;102346.41;;;21.60;100.00
32324;BME280;25666;44.350;9.222;2022-10-16T10:40:08;102339.34;;;21.43;100.00
32324;BME280;25666;44.350;9.222;2022-10-16T10:45:49;102344.31;;;21.53;100.00
32324;BME280;25666;44.350;9.222;2022-10-16T10:51:10;102349.16;;;21.53;100.00
32324;BME280;25666;44.350;9.222;2022-10-16T11:02:04;102334.25;;;21.59;100.00
32324;BME280;25666;44.350;9.222;2022-10-16T11:07:49;102344.19;;;21.76;100.00
32324;BME280;25666;44.350;9.222;2022-10-16T11:10:22;102345.72;;;21.70;100.00
32324;BME280;25666;44.350;9.222;2022-10-16T11:13:11;102342.09;;;21.69;100.00
32324;BME280;25666;44.350;9.222;2022-10-16T11:15:41;102338.00;;;21.67;100.00
32324;BME280;25666;44.350;9.222;2022-10-16T11:18:16;102344.50;;;21.71;100.00
32324;BME280;25666;44.350;9.222;2022-10-16T11:20:54;102347.00;;;21.76;100.00
32324;BME280;25666;44.350;9.222;2022-10-16T11:23:26;102341.81;;;21.81;100.00
32324;BME280;25666;44.350;9.222;2022-10-16T11:25:57;102338.31;;;21.92;100.00
32324;BME280;25666;44.350;9.222;2022-10-16T11:28:35;102333.50;;;21.96;100.00
32324;BME280;25666;44.350;9.222;2022-10-16T11:34:22;102334.63;;;22.31;100.00
32324;BME280;25666;44.350;9.222;2022-10-16T11:36:55;102332.22;;;22.37;100.00
32324;BME280;25666;44.350;9.222;2022-10-16T11:39:27;102324.16;;;22.39;100.00
32324;BME280;25666;44.350;9.222;2022-10-16T11:53:04;102313.75;;;22.57;100.00
32324;BME280;25666;44.350;9.222;2022-10-16T11:55:43;102315.66;;;22.46;100.00
32324;BME280;25666;44.350;9.222;2022-10-16T12:01:33;102306.38;;;22.49;100.00
32324;BME280;25666;44.350;9.222;2022-10-16T12:07:13;102311.91;;;22.31;100.00
32324;BME280;25666;44.350;9.222;2022-10-16T12:09:27;102315.91;;;22.23;100.00
32324;BME280;25666;44.350;9.222;2022-10-16T12:11:54;102314.22;;;22.15;100.00
32324;BME280;25666;44.350;9.222;2022-10-16T12:20:39;102320.88;;;21.93;100.00
32324;BME280;25666;44.350;9.222;2022-10-16T12:22:51;102307.97;;;21.96;100.00
32324;BME280;25666;44.350;9.222;2022-10-16T12:25:32;102311.56;;;21.89;100.00
32324;BME280;25666;44.350;9.222;2022-10-16T12:30:38;102309.63;;;22.00;100.00
32324;BME280;25666;44.350;9.222;2022-10-16T12:33:06;102303.94;;;22.00;100.00
32324;BME280;25666;44.350;9.222;2022-10-16T12:35:43;102312.44;;;22.00;100.00
32324;BME280;25666;44.350;9.222;2022-10-16T12:38:18;102311.59;;;21.96;100.00
32324;BME280;25666;44.350;9.222;2022-10-16T12:40:47;102316.47;;;21.96;100.00
32324;BME280;25666;44.350;9.222;2022-10-16T12:45:45;102311.16;;;21.91;100.00
32324;BME280;25666;44.350;9.222;2022-10-16T12:48:21;102316.75;;;21.87;100.00
32324;BME280;25666;44.350;9.222;2022-10-16T12:50:47;102311.56;;;21.89;100.00
32324;BME280;25666;44.350;9.222;2022-10-16T12:53:21;102318.72;;;21.79;100.00
32324;BME280;25666;44.350;9.222;2022-10-16T12:56:11;102306.50;;;21.75;100.00
32324;BME280;25666;44.350;9.222;2022-10-16T13:06:53;102312.28;;;21.49;100.00
32324;BME280;25666;44.350;9.222;2022-10-16T13:15:25;102323.16;;;21.44;100.00
32324;BME280;25666;44.350;9.222;2022-10-16T13:28:42;102326.75;;;21.41;100.00
32324;BME280;25666;44.350;9.222;2022-10-16T13:31:17;102327.94;;;21.36;100.00
32324;BME280;25666;44.350;9.222;2022-10-16T13:33:50;102327.53;;;21.38;100.00
32324;BME280;25666;44.350;9.222;2022-10-16T13:36:30;102320.63;;;21.35;100.00
32324;BME280;25666;44.350;9.222;2022-10-16T13:39:10;102321.88;;;21.38;100.00
32324;BME280;25666;44.350;9.222;2022-10-16T13:41:37;102326.75;;;21.41;100.00
32324;BME280;25666;44.350;9.222;2022-10-16T13:44:03;102330.78;;;21.36;100.00
32324;BME280;25666;44.350;9.222;2022-10-16T13:46:29;102327.13;;;21.35;100.00
32324;BME280;25666;44.350;9.222;2022-10-16T13:49:15;102329.53;;;21.37;100.00
32324;BME280;25666;44.350;9.222;2022-10-16T13:51:41;102322.28;;;21.40;100.00
32324;BME280;25666;44.350;9.222;2022-10-16T13:54:09;102319.03;;;21.38;100.00
32324;BME280;25666;44.350;9.222;2022-10-16T13:56:39;102329.53;;;21.37;100.00
32324;BME280;25666;44.350;9.222;2022-10-16T13:59:20;102325.94;;;21.40;100.00
32324;BME280;25666;44.350;9.222;2022-10-16T14:01:47;102323.56;;;21.42;100.00
32324;BME280;25666;44.350;9.222;2022-10-16T14:04:13;102328.72;;;21.33;100.00
32324;BME280;25666;44.350;9.222;2022-10-16T14:06:41;102326.34;;;21.39;100.00
32324;BME280;25666;44.350;9.222;2022-10-16T14:09:14;102336.50;;;21.43;100.00
32324;BME280;25666;44.350;9.222;2022-10-16T14:11:50;102335.66;;;21.39;100.00
32324;BME280;25666;44.350;9.222;2022-10-16T14:14:18;102335.94;;;21.30;100.00
32324;BME280;25666;44.350;9.222;2022-10-16T14:16:44;102330.78;;;21.36;100.00
32324;BME280;25666;44.350;9.222;2022-10-16T14:19:26;102329.91;;;21.32;100.00
32324;BME280;25666;44.350;9.222;2022-10-16T14:21:52;102332.44;;;21.41;100.00
32324;BME280;25666;44.350;9.222;2022-10-16T14:24:34;102334.53;;;21.47;100.00
32324;BME280;25666;44.350;9.222;2022-10-16T14:27:01;102322.38;;;21.47;100.00
32324;BME280;25666;44.350;9.222;2022-10-16T14:29:28;102323.09;;;21.40;100.00
32324;BME280;25666;44.350;9.222;2022-10-16T14:32:02;102317.94;;;21.46;100.00
32324;BME280;25666;44.350;9.222;2022-10-16T14:34:31;102321.56;;;21.46;100.00
32324;BME280;25666;44.350;9.222;2022-10-16T14:37:13;102332.00;;;21.39;100.00
32324;BME280;25666;44.350;9.222;2022-10-16T14:39:41;102328.78;;;21.40;100.00
32324;BME280;25666;44.350;9.222;2022-10-16T14:42:17;102325.56;;;21.42;100.00
32324;BME280;25666;44.350;9.222;2022-10-16T14:44:44;102330.00;;;21.43;100.00